createdAt,value
2019-06-15T00:00:31.405Z,13.05
2019-06-15T00:03:00.389Z,13.40
2019-06-15T00:05:29.279Z,13.85
2019-06-15T00:07:58.572Z,15.50
2019-06-15T00:10:28.067Z,16.80
2019-06-15T00:12:57.033Z,16.55
2019-06-15T00:15:26.092Z,15.50
2019-06-15T00:17:55.378Z,15.00
2019-06-15T00:20:24.857Z,14.60
2019-06-15T00:22:53.714Z,14.18
2019-06-15T00:25:22.618Z,15.50
2019-06-15T00:27:51.517Z,15.18
2019-06-15T00:30:20.937Z,15.43
2019-06-15T00:32:50.173Z,14.33
2019-06-15T00:35:19.051Z,16.10
2019-06-15T00:37:48.006Z,15.75
2019-06-15T00:40:17.059Z,16.20
2019-06-15T00:42:46.281Z,15.90
2019-06-15T00:45:15.282Z,16.07
2019-06-15T00:47:44.751Z,17.40
2019-06-15T00:50:13.771Z,16.55
2019-06-15T00:52:43.011Z,17.10
2019-06-15T00:55:12.621Z,16.30
2019-06-15T00:57:42.128Z,16.05
2019-06-15T01:00:11.071Z,16.32
2019-06-15T01:02:39.991Z,17.37
2019-06-15T01:05:09.424Z,18.95
2019-06-15T01:07:38.344Z,20.17
2019-06-15T01:10:07.919Z,18.90
2019-06-15T01:12:36.930Z,18.50
2019-06-15T01:15:07.522Z,20.50
2019-06-15T01:17:36.718Z,19.42
2019-06-15T01:20:06.429Z,19.90
2019-06-15T01:22:35.470Z,19.65
2019-06-15T01:25:05.943Z,18.70
2019-06-15T01:27:35.122Z,19.35
2019-06-15T01:30:04.487Z,18.10
2019-06-15T01:32:33.630Z,18.73
2019-06-15T01:35:02.950Z,19.65
2019-06-15T01:37:32.366Z,18.70
2019-06-15T01:40:01.553Z,18.90
2019-06-15T01:42:30.575Z,19.05
2019-06-15T01:45:00.047Z,20.43
2019-06-15T01:47:29.021Z,20.80
2019-06-15T01:49:57.995Z,20.15
2019-06-15T01:52:27.362Z,20.75
2019-06-15T01:54:56.229Z,21.50
2019-06-15T01:57:25.131Z,21.12
2019-06-15T01:59:54.429Z,21.37
2019-06-15T02:02:23.370Z,21.90
2019-06-15T02:04:52.424Z,22.55
2019-06-15T02:07:21.596Z,23.90
2019-06-15T02:09:50.960Z,24.40
2019-06-15T02:12:20.121Z,24.67
2019-06-15T02:14:49.300Z,24.40
2019-06-15T02:17:18.641Z,26.55
2019-06-15T02:19:47.608Z,25.37
2019-06-15T02:22:16.795Z,25.62
2019-06-15T02:24:45.688Z,25.40
2019-06-15T02:27:15.080Z,27.55
2019-06-15T02:29:44.283Z,28.30
2019-06-15T02:32:13.251Z,26.35
2019-06-15T02:34:42.198Z,27.05
2019-06-15T02:37:11.174Z,27.25
2019-06-15T02:39:40.435Z,27.67
2019-06-15T02:42:09.970Z,27.95
2019-06-15T02:44:39.460Z,28.42
2019-06-15T02:47:08.675Z,27.87
2019-06-15T02:49:37.894Z,28.27
2019-06-15T02:52:06.860Z,28.00
2019-06-15T02:54:36.056Z,28.15
2019-06-15T02:57:05.074Z,30.52
2019-06-15T02:59:34.333Z,29.70
2019-06-15T03:02:03.266Z,29.63
2019-06-15T03:04:32.437Z,29.20
2019-06-15T03:07:02.093Z,28.10
2019-06-15T03:09:31.053Z,27.45
2019-06-15T03:11:59.982Z,28.40
2019-06-15T03:14:28.832Z,28.45
2019-06-15T03:16:58.068Z,26.07
2019-06-15T03:19:27.187Z,27.87
2019-06-15T03:21:56.094Z,27.48
2019-06-15T03:24:24.947Z,27.55
2019-06-15T03:26:53.849Z,27.85
2019-06-15T03:29:22.644Z,29.27
2019-06-15T03:31:51.573Z,27.75
2019-06-15T03:34:20.799Z,27.90
2019-06-15T03:36:49.829Z,26.42
2019-06-15T03:39:19.026Z,26.77
2019-06-15T03:41:48.424Z,26.07
2019-06-15T03:44:17.638Z,25.70
2019-06-15T03:46:46.537Z,25.52
2019-06-15T03:49:15.538Z,26.15
2019-06-15T03:51:44.501Z,25.90
2019-06-15T03:54:13.859Z,25.48
2019-06-15T03:56:42.986Z,25.62
2019-06-15T03:59:11.867Z,24.15
2019-06-15T04:01:46.747Z,22.37
2019-06-15T04:04:15.676Z,21.75
2019-06-15T04:06:45.149Z,21.70
2019-06-15T04:09:14.349Z,21.30
2019-06-15T04:11:43.483Z,21.10
2019-06-15T04:14:13.056Z,20.35
2019-06-15T04:16:42.045Z,18.60
2019-06-15T04:19:10.963Z,19.37
2019-06-15T04:21:39.830Z,17.80
2019-06-15T04:24:08.875Z,16.75
2019-06-15T04:26:37.741Z,17.62
2019-06-15T04:29:06.713Z,16.25
2019-06-15T04:31:35.911Z,16.17
2019-06-15T04:34:05.455Z,16.53
2019-06-15T04:36:34.623Z,16.67
2019-06-15T04:39:05.653Z,15.50
2019-06-15T04:41:34.603Z,16.40
2019-06-15T04:44:03.949Z,15.80
2019-06-15T04:46:33.252Z,14.73
2019-06-15T04:49:02.227Z,14.33
2019-06-15T04:51:31.124Z,14.45
2019-06-15T04:54:00.407Z,14.45
2019-06-15T04:56:29.354Z,15.40
2019-06-15T04:58:58.615Z,15.43
2019-06-15T05:01:28.220Z,14.93
2019-06-15T05:03:57.133Z,16.00
2019-06-15T05:06:26.083Z,15.10
2019-06-15T05:08:55.173Z,15.50
2019-06-15T05:11:24.097Z,18.12
2019-06-15T05:13:52.980Z,17.43
2019-06-15T05:16:22.196Z,17.25
2019-06-15T05:18:51.109Z,17.70
2019-06-15T05:21:20.338Z,16.52
2019-06-15T05:23:49.160Z,14.40
2019-06-15T05:26:18.593Z,13.43
2019-06-15T05:28:47.764Z,12.43
2019-06-15T05:31:17.027Z,11.75
2019-06-15T05:33:45.912Z,11.63
2019-06-15T05:36:14.859Z,10.72
2019-06-15T05:38:43.674Z,10.60
2019-06-15T05:41:15.642Z,10.45
2019-06-15T05:43:43.558Z,10.05
2019-06-15T05:46:12.553Z,10.00
2019-06-15T05:48:42.278Z,10.10
2019-06-15T05:51:11.568Z,9.70
2019-06-15T05:53:40.427Z,9.38
2019-06-15T05:56:09.948Z,9.38
2019-06-15T05:58:38.831Z,12.93
2019-06-15T06:01:08.259Z,15.03
2019-06-15T06:03:37.250Z,18.47
2019-06-15T06:06:06.140Z,13.40
2019-06-15T06:08:35.434Z,11.75
2019-06-15T06:11:04.957Z,12.73
2019-06-15T06:13:34.117Z,15.58
2019-06-15T06:16:03.431Z,16.25
2019-06-15T06:18:32.539Z,12.82
2019-06-15T06:21:01.857Z,17.23
2019-06-15T06:23:31.146Z,14.50
2019-06-15T06:26:00.689Z,13.80
2019-06-15T06:28:29.942Z,13.30
2019-06-15T06:30:59.244Z,11.90
2019-06-15T06:33:28.437Z,11.75
2019-06-15T06:35:57.527Z,12.10
2019-06-15T06:38:26.545Z,9.40
2019-06-15T06:40:56.172Z,15.13
2019-06-15T06:43:26.001Z,13.18
2019-06-15T06:45:55.266Z,12.25
2019-06-15T06:48:24.397Z,13.18
2019-06-15T06:50:53.418Z,11.15
2019-06-15T06:53:22.366Z,11.45
2019-06-15T06:55:51.356Z,13.95
2019-06-15T06:58:20.829Z,13.80
2019-06-15T07:00:49.778Z,14.25
2019-06-15T07:03:18.864Z,14.50
2019-06-15T07:05:47.843Z,15.63
2019-06-15T07:08:16.734Z,15.60
2019-06-15T07:10:45.722Z,16.75
2019-06-15T07:13:14.675Z,16.97
2019-06-15T07:15:43.944Z,18.25
2019-06-15T07:18:12.910Z,25.65
2019-06-15T07:20:41.866Z,23.45
2019-06-15T07:23:10.750Z,24.55
2019-06-15T07:25:39.644Z,30.80
2019-06-15T07:28:08.778Z,27.42
2019-06-15T07:30:37.758Z,29.25
2019-06-15T07:33:06.679Z,32.75
2019-06-15T07:35:35.611Z,32.98
2019-06-15T07:38:04.920Z,38.78
2019-06-15T07:40:33.938Z,37.93
2019-06-15T07:43:03.262Z,35.23
2019-06-15T07:45:32.512Z,31.80
2019-06-15T07:48:01.403Z,30.02
2019-06-15T07:50:30.952Z,29.35
2019-06-15T07:53:00.300Z,26.00
2019-06-15T07:55:29.217Z,25.55
2019-06-15T07:57:58.233Z,26.33
2019-06-15T08:00:27.234Z,30.57
2019-06-15T08:02:56.222Z,33.13
2019-06-15T08:05:25.460Z,33.08
2019-06-15T08:07:55.201Z,33.73
2019-06-15T08:10:24.535Z,35.57
2019-06-15T08:12:53.429Z,34.90
2019-06-15T08:15:23.017Z,35.80
2019-06-15T08:17:52.605Z,35.30
2019-06-15T08:20:26.136Z,35.92
2019-06-15T08:22:54.951Z,38.80
2019-06-15T08:25:23.894Z,37.40
2019-06-15T08:27:52.840Z,41.55
2019-06-15T08:30:28.168Z,35.98
2019-06-15T08:32:57.153Z,31.35
2019-06-15T08:35:26.153Z,29.67
2019-06-15T08:37:55.155Z,27.70
2019-06-15T08:40:24.124Z,24.25
2019-06-15T08:42:53.058Z,23.20
2019-06-15T08:45:22.066Z,25.37
2019-06-15T08:47:51.389Z,35.10
2019-06-15T08:50:20.794Z,36.70
2019-06-15T08:52:49.968Z,27.85
2019-06-15T08:55:19.281Z,25.23
2019-06-15T08:57:48.154Z,23.22
2019-06-15T09:00:17.778Z,23.70
2019-06-15T09:02:47.074Z,31.62
2019-06-15T09:05:16.308Z,38.20
2019-06-15T09:07:45.210Z,28.17
2019-06-15T09:10:14.315Z,23.00
2019-06-15T09:12:43.268Z,24.12
2019-06-15T09:15:12.395Z,19.75
2019-06-15T09:17:41.574Z,16.02
2019-06-15T09:20:10.726Z,16.40
2019-06-15T09:22:39.929Z,16.65
2019-06-15T09:25:09.578Z,16.73
2019-06-15T09:27:39.160Z,21.45
2019-06-15T09:30:08.560Z,22.90
2019-06-15T09:32:37.436Z,27.67
2019-06-15T09:35:06.852Z,14.15
2019-06-15T09:37:35.904Z,17.82
2019-06-15T09:40:05.541Z,14.13
2019-06-15T09:42:34.568Z,12.30
2019-06-15T09:45:03.544Z,13.88
2019-06-15T09:47:33.048Z,12.95
2019-06-15T09:50:02.557Z,11.57
2019-06-15T09:52:31.486Z,12.30
2019-06-15T09:55:00.497Z,11.38
2019-06-15T09:57:29.440Z,12.40
2019-06-15T09:59:58.353Z,12.80
2019-06-15T10:02:27.537Z,16.52
2019-06-15T10:04:56.732Z,12.33
2019-06-15T10:07:25.675Z,13.20
2019-06-15T10:09:54.939Z,15.05
2019-06-15T10:12:23.865Z,16.02
2019-06-15T10:14:52.774Z,14.70
2019-06-15T10:17:22.149Z,14.87
2019-06-15T10:19:51.235Z,12.95
2019-06-15T10:22:20.148Z,9.80
2019-06-15T10:24:49.072Z,7.47
2019-06-15T10:27:18.079Z,6.30
2019-06-15T10:29:46.959Z,6.00
2019-06-15T10:32:15.940Z,5.65
2019-06-15T10:34:44.842Z,5.78
2019-06-15T10:37:13.726Z,5.67
2019-06-15T10:39:42.665Z,5.10
2019-06-15T10:42:11.488Z,4.87
2019-06-15T10:44:40.735Z,5.40
2019-06-15T10:47:09.937Z,5.10
2019-06-15T10:49:38.822Z,4.80
2019-06-15T10:52:07.842Z,5.00
2019-06-15T10:54:36.908Z,5.70
2019-06-15T10:57:05.832Z,5.50
2019-06-15T10:59:35.070Z,6.00
2019-06-15T11:02:04.382Z,6.42
2019-06-15T11:04:33.283Z,6.10
2019-06-15T11:07:02.178Z,11.48
2019-06-15T11:09:31.118Z,6.10
2019-06-15T11:12:00.045Z,11.00
2019-06-15T11:14:29.544Z,9.10
2019-06-15T11:17:00.765Z,8.47
2019-06-15T11:19:29.641Z,9.35
2019-06-15T11:21:58.610Z,10.72
2019-06-15T11:24:27.585Z,12.20
2019-06-15T11:26:56.477Z,13.65
2019-06-15T11:29:25.687Z,11.78
2019-06-15T11:31:54.645Z,12.20
2019-06-15T11:34:23.856Z,10.50
2019-06-15T11:36:52.744Z,11.55
2019-06-15T11:39:21.652Z,12.30
2019-06-15T11:41:50.640Z,10.15
2019-06-15T11:44:19.568Z,9.20
2019-06-15T11:46:48.419Z,7.95
2019-06-15T11:49:17.699Z,6.60
2019-06-15T11:51:46.972Z,7.70
2019-06-15T11:54:16.104Z,7.60
2019-06-15T11:56:45.078Z,8.07
2019-06-15T11:59:14.030Z,8.88
2019-06-15T12:01:43.295Z,9.30
2019-06-15T12:04:12.196Z,9.13
2019-06-15T12:06:41.203Z,8.80
2019-06-15T12:09:10.434Z,7.10
2019-06-15T12:11:39.962Z,4.20
2019-06-15T12:14:08.906Z,4.45
2019-06-15T12:16:37.767Z,3.60
2019-06-15T12:19:06.707Z,3.17
2019-06-15T12:21:35.956Z,2.60
2019-06-15T12:24:05.110Z,3.67
2019-06-15T12:26:34.059Z,2.70
2019-06-15T12:29:03.019Z,2.70
2019-06-15T12:31:32.209Z,2.10
2019-06-15T12:34:01.512Z,2.70
2019-06-15T12:36:30.814Z,2.80
2019-06-15T12:38:59.760Z,2.40
2019-06-15T12:41:28.670Z,2.98
2019-06-15T12:43:57.614Z,2.60
2019-06-15T12:46:26.905Z,2.15
2019-06-15T12:48:55.843Z,2.00
2019-06-15T12:51:24.840Z,1.40
2019-06-15T12:53:53.976Z,1.67
2019-06-15T12:56:23.248Z,1.70
2019-06-15T12:58:52.604Z,1.80
2019-06-15T13:01:21.581Z,1.50
2019-06-15T13:03:50.551Z,2.00
2019-06-15T13:06:19.774Z,10.13
2019-06-15T13:08:48.690Z,8.90
2019-06-15T13:11:17.596Z,23.60
2019-06-15T13:13:46.564Z,11.90
2019-06-15T13:16:15.505Z,7.55
2019-06-15T13:18:44.838Z,11.53
2019-06-15T13:21:14.056Z,12.30
2019-06-15T13:23:42.960Z,6.17
2019-06-15T13:26:11.868Z,6.58
2019-06-15T13:28:41.180Z,3.20
2019-06-15T13:31:18.204Z,2.40
2019-06-15T13:33:40.738Z,2.30
2019-06-15T13:36:12.447Z,1.60
2019-06-15T13:38:43.560Z,2.00
2019-06-15T13:41:12.846Z,2.30
2019-06-15T13:43:41.654Z,2.10
2019-06-15T13:46:10.530Z,2.10
2019-06-15T13:48:39.479Z,2.22
2019-06-15T13:51:08.833Z,2.12
2019-06-15T13:53:37.746Z,1.80
2019-06-15T13:56:06.631Z,2.00
2019-06-15T13:58:35.545Z,2.10
2019-06-15T14:01:04.523Z,2.15
2019-06-15T14:03:33.603Z,1.70
2019-06-15T14:06:02.503Z,2.75
2019-06-15T14:08:31.663Z,10.70
2019-06-15T14:11:01.025Z,11.90
2019-06-15T14:13:29.898Z,4.40
2019-06-15T14:15:59.118Z,5.80
2019-06-15T14:18:28.000Z,4.40
2019-06-15T14:20:56.986Z,4.60
2019-06-15T14:23:25.907Z,5.30
2019-06-15T14:25:54.795Z,9.10
2019-06-15T14:28:23.779Z,7.33
2019-06-15T14:30:52.909Z,5.08
2019-06-15T14:33:21.902Z,11.30
2019-06-15T14:35:51.250Z,6.20
2019-06-15T14:38:20.506Z,3.95
2019-06-15T14:40:49.745Z,2.92
2019-06-15T14:43:18.912Z,5.15
2019-06-15T14:45:58.921Z,2.80
2019-06-15T14:48:19.229Z,2.80
2019-06-15T14:50:48.141Z,11.45
2019-06-15T14:53:17.104Z,13.83
2019-06-15T14:55:46.525Z,7.70
2019-06-15T14:58:17.103Z,4.60
2019-06-15T15:00:46.781Z,10.13
2019-06-15T15:03:17.163Z,14.00
2019-06-15T15:05:46.145Z,6.45
2019-06-15T15:08:15.068Z,9.50
2019-06-15T15:10:44.189Z,7.27
2019-06-15T15:13:13.071Z,5.72
2019-06-15T15:15:42.311Z,7.60
2019-06-15T15:18:12.060Z,6.10
2019-06-15T15:20:40.982Z,5.33
2019-06-15T15:23:10.168Z,3.40
2019-06-15T15:25:39.076Z,3.20
2019-06-15T15:28:08.013Z,3.60
2019-06-15T15:30:40.952Z,3.87
2019-06-15T15:33:09.933Z,3.33
2019-06-15T15:35:39.153Z,3.45
2019-06-15T15:38:08.102Z,9.45
2019-06-15T15:40:37.038Z,9.18
2019-06-15T15:43:06.996Z,20.23
2019-06-15T15:45:37.022Z,17.27
2019-06-15T15:48:06.944Z,12.68
2019-06-15T15:50:37.069Z,3.90
2019-06-15T15:53:06.579Z,11.18
2019-06-15T15:55:35.535Z,7.90
2019-06-15T15:58:06.796Z,3.87
2019-06-15T16:00:35.388Z,5.50
2019-06-15T16:03:07.117Z,5.00
2019-06-15T16:05:37.041Z,4.90
2019-06-15T16:08:06.767Z,4.83
2019-06-15T16:10:37.447Z,5.12
2019-06-15T16:13:06.688Z,5.75
2019-06-15T16:15:37.199Z,5.75
2019-06-15T16:18:06.911Z,5.85
2019-06-15T16:20:37.038Z,5.85
2019-06-15T16:23:07.441Z,6.25
2019-06-15T16:25:37.337Z,5.72
2019-06-15T16:28:07.048Z,5.75
2019-06-15T16:31:00.471Z,5.30
2019-06-15T16:33:07.979Z,5.40
2019-06-15T16:35:37.134Z,4.85
2019-06-15T16:38:06.895Z,4.85
2019-06-15T16:40:38.621Z,4.60
2019-06-15T16:43:07.652Z,3.70
2019-06-15T16:45:36.736Z,3.35
2019-06-15T16:48:06.499Z,3.40
2019-06-15T16:50:36.609Z,3.25
2019-06-15T16:53:06.999Z,3.30
2019-06-15T16:55:37.052Z,3.50
2019-06-15T16:58:07.376Z,9.95
2019-06-15T17:00:36.766Z,18.90
2019-06-15T17:03:19.939Z,29.10
2019-06-15T17:05:37.286Z,15.48
2019-06-15T17:08:07.162Z,12.65
2019-06-15T17:10:39.003Z,8.97
2019-06-15T17:13:07.977Z,14.68
2019-06-15T17:15:37.248Z,18.42
2019-06-15T17:18:06.747Z,11.55
2019-06-15T17:20:42.982Z,11.65
2019-06-15T17:23:11.835Z,7.20
2019-06-15T17:25:40.699Z,9.18
2019-06-15T17:28:09.632Z,9.90
2019-06-15T17:30:38.570Z,10.08
2019-06-15T17:33:08.422Z,10.75
2019-06-15T17:35:37.794Z,8.38
2019-06-15T17:38:06.808Z,4.53
2019-06-15T17:40:36.449Z,5.35
2019-06-15T17:43:06.621Z,4.60
2019-06-15T17:45:37.576Z,4.87
2019-06-15T17:48:06.908Z,4.30
2019-06-15T17:50:40.219Z,4.92
2019-06-15T17:53:09.172Z,4.80
2019-06-15T17:55:39.149Z,5.03
2019-06-15T17:58:08.132Z,8.83
2019-06-15T18:00:42.953Z,4.90
2019-06-15T18:03:12.373Z,4.40
2019-06-15T18:05:41.691Z,6.40
2019-06-15T18:08:11.327Z,8.83
2019-06-15T18:10:40.598Z,11.55
2019-06-15T18:13:09.537Z,8.95
2019-06-15T18:15:38.707Z,8.00
2019-06-15T18:18:07.662Z,7.42
2019-06-15T18:20:37.066Z,6.20
2019-06-15T18:23:06.366Z,13.20
2019-06-15T18:25:37.196Z,5.83
2019-06-15T18:28:06.437Z,11.03
2019-06-15T18:30:37.171Z,5.60
2019-06-15T18:33:07.115Z,6.80
2019-06-15T18:35:36.472Z,12.03
2019-06-15T18:38:07.216Z,24.15
2019-06-15T18:40:37.197Z,14.18
2019-06-15T18:43:07.313Z,6.28
2019-06-15T18:45:36.473Z,6.80
2019-06-15T18:48:06.238Z,8.93
2019-06-15T18:50:37.727Z,6.50
2019-06-15T18:53:07.363Z,6.40
2019-06-15T18:55:36.581Z,6.50
2019-06-15T18:58:05.882Z,12.25
2019-06-15T19:00:37.123Z,7.40
2019-06-15T19:03:06.934Z,6.60
2019-06-15T19:05:37.468Z,5.97
2019-06-15T19:08:06.957Z,4.70
2019-06-15T19:10:36.922Z,4.60
2019-06-15T19:13:07.538Z,4.30
2019-06-15T19:15:37.423Z,4.40
2019-06-15T19:18:07.616Z,4.20
2019-06-15T19:20:37.441Z,4.65
2019-06-15T19:23:07.297Z,4.78
2019-06-15T19:25:36.763Z,4.60
2019-06-15T19:28:05.908Z,4.10
2019-06-15T19:30:37.281Z,3.90
2019-06-15T19:33:06.124Z,4.17
2019-06-15T19:35:36.351Z,4.40
2019-06-15T19:38:06.559Z,4.03
2019-06-15T19:40:37.781Z,4.00
2019-06-15T19:43:06.878Z,3.80
2019-06-15T19:45:37.059Z,3.80
2019-06-15T19:48:06.823Z,4.42
2019-06-15T19:50:36.525Z,4.80
2019-06-15T19:53:07.056Z,5.45
2019-06-15T19:55:36.422Z,4.60
2019-06-15T19:58:07.174Z,5.80
2019-06-15T20:00:36.629Z,7.10
2019-06-15T20:03:06.990Z,5.60
2019-06-15T20:05:37.280Z,5.80
2019-06-15T20:08:07.234Z,5.35
2019-06-15T20:10:37.282Z,5.78
2019-06-15T20:13:07.168Z,6.10
2019-06-15T20:15:37.664Z,5.67
2019-06-15T20:18:07.249Z,5.75
2019-06-15T20:20:37.083Z,5.85
2019-06-15T20:23:07.280Z,5.40
2019-06-15T20:25:37.016Z,6.00
2019-06-15T20:28:07.115Z,5.40
2019-06-15T20:30:37.142Z,6.47
2019-06-15T20:33:07.995Z,6.40
2019-06-15T20:35:36.892Z,5.70
2019-06-15T20:38:06.062Z,5.50
2019-06-15T20:40:36.565Z,5.83
2019-06-15T20:43:07.606Z,5.83
2019-06-15T20:45:37.133Z,6.35
2019-06-15T20:48:06.852Z,6.80
2019-06-15T20:50:36.476Z,6.80
2019-06-15T20:53:06.116Z,8.10
2019-06-15T20:55:37.278Z,7.58
2019-06-15T20:58:06.646Z,7.85
2019-06-15T21:00:36.774Z,7.97
2019-06-15T21:03:06.873Z,7.57
2019-06-15T21:05:41.038Z,7.62
2019-06-15T21:08:07.142Z,6.65
2019-06-15T21:10:37.266Z,6.55
2019-06-15T21:13:06.439Z,7.50
2019-06-15T21:15:38.610Z,8.70
2019-06-15T21:18:07.633Z,7.95
2019-06-15T21:20:36.603Z,7.85
2019-06-15T21:23:06.707Z,7.50
2019-06-15T21:25:35.837Z,8.20
2019-06-15T21:28:06.693Z,7.80
2019-06-15T21:30:36.875Z,7.90
2019-06-15T21:33:07.074Z,7.97
2019-06-15T21:35:48.189Z,8.10
2019-06-15T21:38:07.106Z,8.90
2019-06-15T21:40:36.959Z,8.35
2019-06-15T21:43:07.028Z,8.00
2019-06-15T21:45:36.765Z,7.67
2019-06-15T21:48:06.797Z,7.80
2019-06-15T21:50:36.321Z,7.33
2019-06-15T21:53:06.975Z,7.28
2019-06-15T21:55:36.450Z,6.90
2019-06-15T21:58:07.579Z,6.70
2019-06-15T22:00:47.824Z,6.00
2019-06-15T22:03:17.033Z,6.78
2019-06-15T22:05:50.068Z,7.45
2019-06-15T22:08:17.164Z,7.80
2019-06-15T22:10:46.362Z,7.62
2019-06-15T22:13:16.009Z,7.20
2019-06-15T22:15:46.642Z,8.03
2019-06-15T22:18:16.467Z,7.50
2019-06-15T22:20:47.125Z,7.70
2019-06-15T22:23:16.686Z,8.48
2019-06-15T22:25:46.363Z,8.10
2019-06-15T22:28:16.459Z,8.80
2019-06-15T22:30:46.342Z,8.13
2019-06-15T22:33:16.531Z,8.70
2019-06-15T22:35:47.514Z,8.30
2019-06-15T22:38:16.456Z,8.25
2019-06-15T22:40:47.048Z,8.40
2019-06-15T22:43:16.768Z,8.10
2019-06-15T22:45:49.777Z,9.48
2019-06-15T22:48:16.686Z,9.18
2019-06-15T22:50:46.816Z,8.67
2019-06-15T22:53:16.563Z,10.20
2019-06-15T22:55:46.407Z,9.45
2019-06-15T22:58:17.923Z,10.03
2019-06-15T23:00:47.007Z,9.97
2019-06-15T23:03:16.851Z,10.00
2019-06-15T23:05:46.409Z,9.43
2019-06-15T23:08:16.278Z,9.33
2019-06-15T23:10:46.824Z,9.83
2019-06-15T23:13:16.222Z,9.33
2019-06-15T23:15:47.073Z,9.50
2019-06-15T23:18:17.156Z,8.55
2019-06-15T23:20:46.427Z,9.23
2019-06-15T23:23:16.286Z,9.20
2019-06-15T23:25:47.241Z,10.48
2019-06-15T23:28:16.570Z,10.80
2019-06-15T23:30:47.304Z,11.95
2019-06-15T23:33:17.215Z,12.65
2019-06-15T23:35:52.131Z,12.25
2019-06-15T23:38:21.487Z,12.37
2019-06-15T23:40:50.765Z,13.13
2019-06-15T23:43:20.211Z,11.75
2019-06-15T23:45:49.440Z,11.30
2019-06-15T23:48:18.644Z,22.15
2019-06-15T23:50:47.643Z,15.53
2019-06-15T23:53:17.063Z,15.83
2019-06-15T23:55:47.233Z,18.25
2019-06-15T23:58:17.640Z,13.95
